createdAt,value
2022-09-06T00:02:07.339Z,99.90
2022-09-06T00:04:53.937Z,99.90
2022-09-06T00:07:40.861Z,99.90
2022-09-06T00:10:27.478Z,99.90
2022-09-06T00:13:15.836Z,99.90
2022-09-06T00:16:07.917Z,99.90
2022-09-06T00:18:55.685Z,99.90
2022-09-06T00:21:42.106Z,99.90
2022-09-06T00:24:29.044Z,99.90
2022-09-06T00:27:15.384Z,99.90
2022-09-06T00:30:05.466Z,99.90
2022-09-06T00:32:52.473Z,99.90
2022-09-06T00:35:39.268Z,99.90
2022-09-06T00:38:25.733Z,99.90
2022-09-06T00:41:15.632Z,99.90
2022-09-06T00:44:02.163Z,99.90
2022-09-06T00:46:53.527Z,99.90
2022-09-06T00:49:43.496Z,99.90
2022-09-06T00:52:31.368Z,99.90
2022-09-06T00:55:19.177Z,99.90
2022-09-06T00:58:05.899Z,99.90
2022-09-06T01:00:52.364Z,99.90
2022-09-06T01:03:41.098Z,99.90
2022-09-06T01:06:40.493Z,99.90
2022-09-06T01:09:43.770Z,99.90
2022-09-06T01:12:41.745Z,99.90
2022-09-06T01:15:36.663Z,99.90
2022-09-06T01:18:34.462Z,99.90
2022-09-06T01:21:33.229Z,99.90
2022-09-06T01:24:59.614Z,99.90
2022-09-06T01:28:17.077Z,99.90
2022-09-06T01:31:15.022Z,99.90
2022-09-06T01:34:18.511Z,99.90
2022-09-06T01:37:10.783Z,99.90
2022-09-06T01:39:57.621Z,99.90
2022-09-06T01:42:47.884Z,99.90
2022-09-06T01:45:45.040Z,99.90
2022-09-06T01:48:47.389Z,99.90
2022-09-06T01:51:44.048Z,99.90
2022-09-06T01:54:43.672Z,99.90
2022-09-06T01:57:48.849Z,99.90
2022-09-06T02:00:44.041Z,99.90
2022-09-06T02:03:35.836Z,99.90
2022-09-06T02:06:27.647Z,99.90
2022-09-06T02:09:19.095Z,99.90
2022-09-06T02:12:08.941Z,99.90
2022-09-06T02:14:59.687Z,99.90
2022-09-06T02:17:53.544Z,99.90
2022-09-06T02:20:43.957Z,99.90
2022-09-06T02:23:34.647Z,99.90
2022-09-06T02:26:25.435Z,99.90
2022-09-06T02:29:12.218Z,99.90
2022-09-06T02:32:04.105Z,99.90
2022-09-06T02:34:53.828Z,99.90
2022-09-06T02:37:40.434Z,99.90
2022-09-06T02:40:27.104Z,99.90
2022-09-06T02:43:13.726Z,99.90
2022-09-06T02:46:00.771Z,99.90
2022-09-06T02:48:47.793Z,99.90
2022-09-06T02:51:39.681Z,99.90
2022-09-06T02:54:26.351Z,99.90
2022-09-06T02:57:13.201Z,99.90
2022-09-06T02:59:59.679Z,99.90
2022-09-06T03:02:46.327Z,99.90
2022-09-06T03:05:33.309Z,99.90
2022-09-06T03:08:22.539Z,99.90
2022-09-06T03:11:09.088Z,99.90
2022-09-06T03:13:55.521Z,99.90
2022-09-06T03:16:42.222Z,99.90
2022-09-06T03:19:29.024Z,99.90
2022-09-06T03:22:15.892Z,99.90
2022-09-06T03:25:03.685Z,99.90
2022-09-06T03:27:50.382Z,99.90
2022-09-06T03:30:37.121Z,99.90
2022-09-06T03:33:24.008Z,99.90
2022-09-06T03:36:10.800Z,99.90
2022-09-06T03:38:58.248Z,99.90
2022-09-06T03:41:46.021Z,99.90
2022-09-06T03:44:32.685Z,99.90
2022-09-06T03:47:19.856Z,99.90
2022-09-06T03:50:07.545Z,99.90
2022-09-06T03:52:54.214Z,99.90
2022-09-06T03:55:40.634Z,99.90
2022-09-06T03:58:31.325Z,99.90
2022-09-06T04:01:17.666Z,99.90
2022-09-06T04:04:04.804Z,99.90
2022-09-06T04:06:51.337Z,99.90
2022-09-06T04:09:38.300Z,99.90
2022-09-06T04:12:25.286Z,99.90
2022-09-06T04:15:13.131Z,99.90
2022-09-06T04:17:59.533Z,99.90
2022-09-06T04:20:49.002Z,99.90
2022-09-06T04:23:39.794Z,99.90
2022-09-06T04:26:26.552Z,99.90
2022-09-06T04:29:13.070Z,99.90
2022-09-06T04:32:00.759Z,99.90
2022-09-06T04:34:47.576Z,99.90
2022-09-06T04:37:34.418Z,99.90
2022-09-06T04:40:21.543Z,99.90
2022-09-06T04:43:08.128Z,99.90
2022-09-06T04:45:54.573Z,99.90
2022-09-06T04:48:42.775Z,99.90
2022-09-06T04:51:29.563Z,99.90
2022-09-06T04:54:16.507Z,99.90
2022-09-06T04:57:03.526Z,99.90
2022-09-06T04:59:50.482Z,99.90
2022-09-06T05:02:37.463Z,99.90
2022-09-06T05:05:26.640Z,99.90
2022-09-06T05:08:13.561Z,99.90
2022-09-06T05:10:59.953Z,99.90
2022-09-06T05:13:47.166Z,99.90
2022-09-06T05:16:33.649Z,99.90
2022-09-06T05:19:20.584Z,99.90
2022-09-06T05:22:08.840Z,99.90
2022-09-06T05:24:55.668Z,99.90
2022-09-06T05:27:41.946Z,99.90
2022-09-06T05:30:28.875Z,99.90
2022-09-06T05:33:21.662Z,99.90
2022-09-06T05:36:09.313Z,99.90
2022-09-06T05:38:58.240Z,99.90
2022-09-06T05:41:44.995Z,99.90
2022-09-06T05:44:31.340Z,99.90
2022-09-06T05:47:17.714Z,99.90
2022-09-06T05:50:06.912Z,99.90
2022-09-06T05:52:55.149Z,99.90
2022-09-06T05:55:43.265Z,99.90
2022-09-06T05:58:30.272Z,99.90
2022-09-06T06:01:19.175Z,99.90
2022-09-06T06:04:07.990Z,99.90
2022-09-06T06:06:54.907Z,99.90
2022-09-06T06:09:41.913Z,99.90
2022-09-06T06:12:30.260Z,99.90
2022-09-06T06:15:17.036Z,99.90
2022-09-06T06:18:03.803Z,99.90
2022-09-06T06:20:50.590Z,99.90
2022-09-06T06:23:37.219Z,99.90
2022-09-06T06:26:25.866Z,99.90
2022-09-06T06:29:14.487Z,99.90
2022-09-06T06:32:01.016Z,99.90
2022-09-06T06:34:48.229Z,99.90
2022-09-06T06:37:35.145Z,99.90
2022-09-06T06:40:22.083Z,99.90
2022-09-06T06:43:10.808Z,99.90
2022-09-06T06:45:59.237Z,99.90
2022-09-06T06:48:50.383Z,99.90
2022-09-06T06:51:39.572Z,99.90
2022-09-06T06:54:26.098Z,99.90
2022-09-06T06:57:12.914Z,99.90
2022-09-06T06:59:59.401Z,99.90
2022-09-06T07:02:47.692Z,99.90
2022-09-06T07:08:41.985Z,99.90
2022-09-06T07:11:28.558Z,99.90
2022-09-06T07:14:15.800Z,99.90
2022-09-06T07:17:05.024Z,99.90
2022-09-06T07:26:16.408Z,99.90
2022-09-06T07:29:06.238Z,99.90
2022-09-06T07:32:12.239Z,99.90
2022-09-06T07:35:00.644Z,99.90
2022-09-06T07:37:53.660Z,99.90
2022-09-06T07:40:40.010Z,99.90
2022-09-06T07:43:27.656Z,99.90
2022-09-06T07:46:16.449Z,99.90
2022-09-06T07:49:05.617Z,99.90
2022-09-06T07:51:53.698Z,99.90
2022-09-06T07:54:40.121Z,99.90
2022-09-06T07:57:26.703Z,99.90
2022-09-06T08:00:14.186Z,99.90
2022-09-06T08:03:00.956Z,99.90
2022-09-06T08:08:59.815Z,99.90
2022-09-06T08:11:46.905Z,99.90
2022-09-06T08:14:33.397Z,99.90
2022-09-06T08:17:20.073Z,99.90
2022-09-06T08:20:07.629Z,99.90
2022-09-06T08:22:54.220Z,99.90
2022-09-06T08:25:42.182Z,99.90
2022-09-06T08:28:29.054Z,99.90
2022-09-06T08:31:17.709Z,99.90
2022-09-06T08:34:04.902Z,99.90
2022-09-06T08:36:51.868Z,99.90
2022-09-06T08:39:38.904Z,99.90
2022-09-06T08:42:27.133Z,99.90
2022-09-06T08:45:19.303Z,99.90
2022-09-06T08:48:07.037Z,99.90
2022-09-06T08:51:08.367Z,99.90
2022-09-06T08:54:00.780Z,99.90
2022-09-06T08:57:02.380Z,99.90
2022-09-06T08:59:55.131Z,99.90
2022-09-06T09:02:45.784Z,99.90
2022-09-06T09:05:35.372Z,99.90
2022-09-06T09:08:25.515Z,99.90
2022-09-06T09:11:17.947Z,99.90
2022-09-06T09:14:09.673Z,99.90
2022-09-06T09:17:13.017Z,99.90
2022-09-06T09:19:59.874Z,99.90
2022-09-06T09:22:47.481Z,99.90
2022-09-06T09:25:35.145Z,99.90
2022-09-06T09:28:24.947Z,99.70
2022-09-06T09:31:14.212Z,99.40
2022-09-06T09:34:04.710Z,99.20
2022-09-06T09:40:28.782Z,99.10
2022-09-06T09:43:18.897Z,98.90
2022-09-06T09:46:15.716Z,98.80
2022-09-06T09:49:09.959Z,98.20
2022-09-06T09:52:07.540Z,98.20
2022-09-06T09:54:56.155Z,98.00
2022-09-06T09:57:46.764Z,98.20
2022-09-06T10:00:36.365Z,98.40
2022-09-06T10:03:30.976Z,99.00
2022-09-06T10:09:36.757Z,99.90
2022-09-06T10:12:30.695Z,99.90
2022-09-06T10:15:36.135Z,99.90
2022-09-06T10:18:31.363Z,99.90
2022-09-06T10:21:22.290Z,99.90
2022-09-06T10:24:31.964Z,99.80
2022-09-06T10:27:24.440Z,99.90
2022-09-06T10:30:11.904Z,99.90
2022-09-06T10:33:06.094Z,99.90
2022-09-06T10:35:53.846Z,99.90
2022-09-06T10:38:52.552Z,99.90
2022-09-06T10:41:57.044Z,99.90
2022-09-06T10:44:59.314Z,99.90
2022-09-06T10:47:57.314Z,99.90
2022-09-06T10:50:49.205Z,99.90
2022-09-06T10:53:49.932Z,99.90
2022-09-06T10:56:42.653Z,99.90
2022-09-06T11:02:40.036Z,99.90
2022-09-06T11:05:39.168Z,99.90
2022-09-06T11:08:46.327Z,99.90
2022-09-06T11:11:43.474Z,99.80
2022-09-06T11:14:31.234Z,99.60
2022-09-06T11:17:27.324Z,99.40
2022-09-06T11:20:18.982Z,99.20
2022-09-06T11:23:26.021Z,99.10
2022-09-06T11:26:30.169Z,99.10
2022-09-06T11:29:23.765Z,98.90
2022-09-06T11:32:30.405Z,99.20
2022-09-06T11:35:25.453Z,99.20
2022-09-06T11:38:23.107Z,98.70
2022-09-06T11:41:17.221Z,98.40
2022-09-06T11:44:05.810Z,98.70
2022-09-06T11:47:07.490Z,98.10
2022-09-06T11:49:54.305Z,98.30
2022-09-06T11:53:12.828Z,98.20
2022-09-06T11:56:22.017Z,97.90
2022-09-06T11:59:21.712Z,97.80
2022-09-06T12:02:32.007Z,97.50
2022-09-06T12:05:27.122Z,98.10
2022-09-06T12:08:30.520Z,98.00
2022-09-06T12:11:35.231Z,97.90
2022-09-06T12:14:31.588Z,97.60
2022-09-06T12:17:22.237Z,97.10
2022-09-06T12:20:09.053Z,96.80
2022-09-06T12:22:56.970Z,96.50
2022-09-06T12:26:00.076Z,96.40
2022-09-06T12:28:49.877Z,96.00
2022-09-06T12:31:40.193Z,96.00
2022-09-06T12:34:29.825Z,96.50
2022-09-06T12:37:31.153Z,96.70
2022-09-06T12:40:20.548Z,97.00
2022-09-06T12:43:09.961Z,96.80
2022-09-06T12:45:56.575Z,97.00
2022-09-06T12:48:44.797Z,97.50
2022-09-06T12:51:31.631Z,96.70
2022-09-06T12:54:21.899Z,96.00
2022-09-06T12:57:20.867Z,95.90
2022-09-06T13:00:08.244Z,96.20
2022-09-06T13:03:06.954Z,95.80
2022-09-06T13:05:56.565Z,96.40
2022-09-06T13:08:47.287Z,96.30
2022-09-06T13:11:38.446Z,97.10
2022-09-06T13:14:29.646Z,95.90
2022-09-06T13:17:25.306Z,95.50
2022-09-06T13:20:14.309Z,96.00
2022-09-06T13:23:11.527Z,96.50
2022-09-06T13:25:58.648Z,96.40
2022-09-06T13:28:45.297Z,97.40
2022-09-06T13:31:33.954Z,97.10
2022-09-06T13:34:23.225Z,96.20
2022-09-06T13:37:11.834Z,96.50
2022-09-06T13:39:59.277Z,97.40
2022-09-06T13:42:46.067Z,97.40
2022-09-06T13:45:33.722Z,97.40
2022-09-06T13:48:28.984Z,96.90
2022-09-06T13:51:16.108Z,97.10
2022-09-06T13:54:07.711Z,97.50
2022-09-06T13:56:55.089Z,98.20
2022-09-06T13:59:42.885Z,98.20
2022-09-06T14:02:29.570Z,98.80
2022-09-06T14:05:18.177Z,98.00
2022-09-06T14:08:04.977Z,98.70
2022-09-06T14:10:51.744Z,98.00
2022-09-06T14:13:38.515Z,98.30
2022-09-06T14:16:25.858Z,98.40
2022-09-06T14:19:13.093Z,98.40
2022-09-06T14:22:01.845Z,98.90
2022-09-06T14:24:49.501Z,98.60
2022-09-06T14:27:36.308Z,99.00
2022-09-06T14:30:22.865Z,98.40
2022-09-06T14:33:09.772Z,98.70
2022-09-06T14:35:56.187Z,96.70
2022-09-06T14:38:45.717Z,96.40
2022-09-06T14:41:32.184Z,96.90
2022-09-06T14:44:19.321Z,97.30
2022-09-06T14:47:06.425Z,97.40
2022-09-06T14:49:53.336Z,97.80
2022-09-06T14:52:39.749Z,98.10
2022-09-06T14:55:28.661Z,97.70
2022-09-06T14:58:15.622Z,96.90
2022-09-06T15:01:11.713Z,96.70
2022-09-06T15:04:00.650Z,96.50
2022-09-06T15:06:48.333Z,96.00
2022-09-06T15:09:35.133Z,96.30
2022-09-06T15:12:23.351Z,96.40
2022-09-06T15:15:10.817Z,96.40
2022-09-06T15:17:58.339Z,96.20
2022-09-06T15:20:46.375Z,96.20
2022-09-06T15:23:33.261Z,96.80
2022-09-06T15:26:20.026Z,96.50
2022-09-06T15:29:08.912Z,96.60
2022-09-06T15:31:57.125Z,96.60
2022-09-06T15:34:43.759Z,96.90
2022-09-06T15:37:30.741Z,97.40
2022-09-06T15:40:17.540Z,97.80
2022-09-06T15:43:04.569Z,97.80
2022-09-06T15:45:53.292Z,98.00
2022-09-06T15:48:43.264Z,98.50
2022-09-06T15:51:30.251Z,98.50
2022-09-06T15:54:19.609Z,98.50
2022-09-06T15:57:05.764Z,98.40
2022-09-06T15:59:53.414Z,98.40
2022-09-06T16:02:42.561Z,98.70
2022-09-06T16:08:36.524Z,99.40
2022-09-06T16:11:23.365Z,99.00
2022-09-06T16:14:13.199Z,98.60
2022-09-06T16:17:00.033Z,99.00
2022-09-06T16:19:49.689Z,99.60
2022-09-06T16:22:36.396Z,99.20
2022-09-06T16:25:23.381Z,99.80
2022-09-06T16:28:09.786Z,99.80
2022-09-06T16:30:57.303Z,99.90
2022-09-06T16:33:45.536Z,99.90
2022-09-06T16:36:33.785Z,99.90
2022-09-06T16:39:20.401Z,99.90
2022-09-06T16:42:07.851Z,99.90
2022-09-06T16:44:55.090Z,99.90
2022-09-06T16:47:41.723Z,99.90
2022-09-06T16:50:28.709Z,99.90
2022-09-06T16:53:20.320Z,99.90
2022-09-06T16:56:09.281Z,99.90
2022-09-06T16:58:58.550Z,99.90
2022-09-06T17:01:45.677Z,99.90
2022-09-06T17:04:32.749Z,99.90
2022-09-06T17:07:19.941Z,99.90
2022-09-06T17:10:09.094Z,99.90
2022-09-06T17:12:55.991Z,99.90
2022-09-06T17:16:00.338Z,99.90
2022-09-06T17:18:47.267Z,99.90
2022-09-06T17:21:34.848Z,99.90
2022-09-06T17:24:21.780Z,99.90
2022-09-06T17:27:10.037Z,99.90
2022-09-06T17:29:56.745Z,99.90
2022-09-06T17:32:43.676Z,99.90
2022-09-06T17:35:30.572Z,99.90
2022-09-06T17:38:17.542Z,99.90
2022-09-06T17:41:04.643Z,99.90
2022-09-06T17:43:54.065Z,99.90
2022-09-06T17:46:57.158Z,99.90
2022-09-06T17:49:49.006Z,99.90
2022-09-06T17:52:37.121Z,99.90
2022-09-06T17:55:24.213Z,99.90
2022-09-06T17:58:11.201Z,99.90
2022-09-06T18:01:03.304Z,99.90
2022-09-06T18:03:50.476Z,99.90
2022-09-06T18:06:40.233Z,99.90
2022-09-06T18:09:26.863Z,99.90
2022-09-06T18:12:13.912Z,99.90
2022-09-06T18:15:02.261Z,99.90
2022-09-06T18:17:50.562Z,99.90
2022-09-06T18:20:37.909Z,99.90
2022-09-06T18:23:24.858Z,99.90
2022-09-06T18:26:12.005Z,99.90
2022-09-06T18:28:58.605Z,99.90
2022-09-06T18:31:45.907Z,99.90
2022-09-06T18:34:34.124Z,99.90
2022-09-06T18:37:20.849Z,99.90
2022-09-06T18:40:08.909Z,99.90
2022-09-06T18:42:55.762Z,99.90
2022-09-06T18:45:43.026Z,99.90
2022-09-06T18:48:31.211Z,99.90
2022-09-06T18:51:19.141Z,99.90
2022-09-06T18:54:06.844Z,99.90
2022-09-06T18:56:53.363Z,99.90
2022-09-06T18:59:39.993Z,99.90
2022-09-06T19:02:28.504Z,99.90
2022-09-06T19:05:15.782Z,99.90
2022-09-06T19:08:04.743Z,99.90
2022-09-06T19:11:00.915Z,99.90
2022-09-06T19:13:51.287Z,99.90
2022-09-06T19:16:38.209Z,99.90
2022-09-06T19:19:25.606Z,99.90
2022-09-06T19:22:12.357Z,99.90
2022-09-06T19:25:00.870Z,99.90
2022-09-06T19:27:48.951Z,99.90
2022-09-06T19:30:35.643Z,99.90
2022-09-06T19:33:22.249Z,99.90
2022-09-06T19:36:12.040Z,99.90
2022-09-06T19:39:05.033Z,99.90
2022-09-06T19:41:53.843Z,99.90
2022-09-06T19:44:40.626Z,99.90
2022-09-06T19:47:27.696Z,99.90
2022-09-06T19:50:15.406Z,99.90
2022-09-06T19:53:07.049Z,99.90
2022-09-06T19:55:54.220Z,99.90
2022-09-06T19:58:43.497Z,99.90
2022-09-06T20:01:32.574Z,99.90
2022-09-06T20:04:19.950Z,99.90
2022-09-06T20:07:06.987Z,99.90
2022-09-06T20:09:53.561Z,99.90
2022-09-06T20:12:40.225Z,99.90
2022-09-06T20:15:28.011Z,99.90
2022-09-06T20:18:15.159Z,99.90
2022-09-06T20:21:02.354Z,99.90
2022-09-06T20:23:50.501Z,99.90
2022-09-06T20:26:37.669Z,99.90
2022-09-06T20:29:24.589Z,99.90
2022-09-06T20:32:12.973Z,99.90
2022-09-06T20:34:59.478Z,99.90
2022-09-06T20:37:46.454Z,99.90
2022-09-06T20:40:33.122Z,99.90
2022-09-06T20:43:19.891Z,99.90
2022-09-06T20:46:14.536Z,99.90
2022-09-06T20:49:04.642Z,99.90
2022-09-06T20:51:51.442Z,99.90
2022-09-06T20:54:38.015Z,99.90
2022-09-06T20:57:25.139Z,99.90
2022-09-06T21:00:14.528Z,99.90
2022-09-06T21:03:01.332Z,99.90
2022-09-06T21:05:49.911Z,99.90
2022-09-06T21:08:41.885Z,99.90
2022-09-06T21:11:29.919Z,99.90
2022-09-06T21:14:16.610Z,99.90
2022-09-06T21:17:03.762Z,99.90
2022-09-06T21:19:50.470Z,99.90
2022-09-06T21:22:38.829Z,99.90
2022-09-06T21:25:25.720Z,99.90
2022-09-06T21:28:12.520Z,99.90
2022-09-06T21:31:03.597Z,99.90
2022-09-06T21:33:53.622Z,99.90
2022-09-06T21:36:40.793Z,99.90
2022-09-06T21:39:29.248Z,99.90
2022-09-06T21:42:16.193Z,99.90
2022-09-06T21:45:03.093Z,99.90
2022-09-06T21:47:49.969Z,99.90
2022-09-06T21:50:36.957Z,99.90
2022-09-06T21:53:26.000Z,99.90
2022-09-06T21:56:15.639Z,99.90
2022-09-06T21:59:03.169Z,99.90
2022-09-06T22:01:50.059Z,99.90
2022-09-06T22:04:37.878Z,99.90
2022-09-06T22:07:24.540Z,99.90
2022-09-06T22:10:11.645Z,99.90
2022-09-06T22:13:00.055Z,99.90
2022-09-06T22:15:47.212Z,99.90
2022-09-06T22:18:34.500Z,99.90
2022-09-06T22:21:22.988Z,99.90
2022-09-06T22:24:11.007Z,99.90
2022-09-06T22:26:57.494Z,99.90
2022-09-06T22:29:45.851Z,99.90
2022-09-06T22:32:32.601Z,99.90
2022-09-06T22:35:19.773Z,99.90
2022-09-06T22:38:07.618Z,99.90
2022-09-06T22:40:54.607Z,99.90
2022-09-06T22:43:41.703Z,99.90
2022-09-06T22:46:30.733Z,99.90
2022-09-06T22:49:17.385Z,99.90
2022-09-06T22:52:04.412Z,99.90
2022-09-06T22:54:51.304Z,99.90
2022-09-06T22:57:38.364Z,99.90
2022-09-06T23:00:26.855Z,99.90
2022-09-06T23:03:14.994Z,99.90
2022-09-06T23:06:02.616Z,99.90
2022-09-06T23:08:49.629Z,99.90
2022-09-06T23:11:36.289Z,99.90
2022-09-06T23:14:22.709Z,99.90
2022-09-06T23:17:10.379Z,99.90
2022-09-06T23:19:58.461Z,99.90
2022-09-06T23:22:45.197Z,99.90
2022-09-06T23:25:31.587Z,99.90
2022-09-06T23:28:18.647Z,99.90
2022-09-06T23:31:06.748Z,99.90
2022-09-06T23:33:53.947Z,99.90
2022-09-06T23:36:42.002Z,99.90
2022-09-06T23:39:29.302Z,99.90
2022-09-06T23:42:16.125Z,99.90
2022-09-06T23:45:03.433Z,99.90
2022-09-06T23:47:50.163Z,99.90
2022-09-06T23:50:37.238Z,99.90
2022-09-06T23:53:25.541Z,99.90
2022-09-06T23:56:12.737Z,99.90
2022-09-06T23:58:59.321Z,99.90
